sensor_id;sensor_type;location;lat;lon;timestamp;temperature;humidity
65078;DHT22;51672;51.230;-2.322;2022-09-09T00:03:27;15.00;99.90
65078;DHT22;51672;51.230;-2.322;2022-09-09T00:11:24;15.10;99.90
65078;DHT22;51672;51.230;-2.322;2022-09-09T00:15:14;15.10;99.90
65078;DHT22;51672;51.230;-2.322;2022-09-09T00:19:10;15.10;99.90
65078;DHT22;51672;51.230;-2.322;2022-09-09T00:23:09;15.10;99.90
65078;DHT22;51672;51.230;-2.322;2022-09-09T00:27:04;15.20;99.90
65078;DHT22;51672;51.230;-2.322;2022-09-09T00:30:47;15.20;99.90
65078;DHT22;51672;51.230;-2.322;2022-09-09T00:34:33;15.20;99.90
65078;DHT22;51672;51.230;-2.322;2022-09-09T00:38:32;15.20;99.90
65078;DHT22;51672;51.230;-2.322;2022-09-09T00:42:40;15.30;99.90
65078;DHT22;51672;51.230;-2.322;2022-09-09T00:46:38;15.30;99.90
65078;DHT22;51672;51.230;-2.322;2022-09-09T00:58:15;15.40;99.90
65078;DHT22;51672;51.230;-2.322;2022-09-09T01:01:57;15.40;99.90
65078;DHT22;51672;51.230;-2.322;2022-09-09T01:09:52;15.40;99.90
65078;DHT22;51672;51.230;-2.322;2022-09-09T01:13:36;15.40;99.90
65078;DHT22;51672;51.230;-2.322;2022-09-09T01:17:27;15.30;99.90
65078;DHT22;51672;51.230;-2.322;2022-09-09T01:29:21;15.10;99.90
65078;DHT22;51672;51.230;-2.322;2022-09-09T01:33:04;15.00;99.90
65078;DHT22;51672;51.230;-2.322;2022-09-09T01:37:05;15.00;99.90
65078;DHT22;51672;51.230;-2.322;2022-09-09T01:40:47;14.90;99.90
65078;DHT22;51672;51.230;-2.322;2022-09-09T01:44:31;14.90;99.90
65078;DHT22;51672;51.230;-2.322;2022-09-09T01:48:13;14.80;99.90
65078;DHT22;51672;51.230;-2.322;2022-09-09T01:51:56;14.80;99.90
65078;DHT22;51672;51.230;-2.322;2022-09-09T01:55:41;14.70;99.90
65078;DHT22;51672;51.230;-2.322;2022-09-09T02:03:29;14.70;99.90
65078;DHT22;51672;51.230;-2.322;2022-09-09T02:07:26;14.70;99.90
65078;DHT22;51672;51.230;-2.322;2022-09-09T02:11:20;14.70;99.90
65078;DHT22;51672;51.230;-2.322;2022-09-09T02:15:07;14.60;99.90
65078;DHT22;51672;51.230;-2.322;2022-09-09T02:18:57;14.60;99.90
65078;DHT22;51672;51.230;-2.322;2022-09-09T02:22:44;14.50;99.90
65078;DHT22;51672;51.230;-2.322;2022-09-09T02:26:27;14.50;99.90
65078;DHT22;51672;51.230;-2.322;2022-09-09T02:30:10;14.50;99.90
65078;DHT22;51672;51.230;-2.322;2022-09-09T02:33:58;14.40;99.90
65078;DHT22;51672;51.230;-2.322;2022-09-09T02:37:43;14.40;99.90
65078;DHT22;51672;51.230;-2.322;2022-09-09T02:41:34;14.40;99.90
65078;DHT22;51672;51.230;-2.322;2022-09-09T02:45:19;14.30;99.90
65078;DHT22;51672;51.230;-2.322;2022-09-09T02:49:09;14.30;99.90
65078;DHT22;51672;51.230;-2.322;2022-09-09T02:53:16;14.30;99.90
65078;DHT22;51672;51.230;-2.322;2022-09-09T02:57:08;14.30;99.90
65078;DHT22;51672;51.230;-2.322;2022-09-09T03:00:52;14.30;99.90
65078;DHT22;51672;51.230;-2.322;2022-09-09T03:04:34;14.30;99.90
65078;DHT22;51672;51.230;-2.322;2022-09-09T03:08:16;14.20;99.90
65078;DHT22;51672;51.230;-2.322;2022-09-09T03:11:58;14.30;99.90
65078;DHT22;51672;51.230;-2.322;2022-09-09T03:15:41;14.30;99.90
65078;DHT22;51672;51.230;-2.322;2022-09-09T03:19:23;14.30;99.90
65078;DHT22;51672;51.230;-2.322;2022-09-09T03:23:06;14.40;99.90
65078;DHT22;51672;51.230;-2.322;2022-09-09T03:26:52;14.40;99.90
65078;DHT22;51672;51.230;-2.322;2022-09-09T03:30:34;14.50;99.90
65078;DHT22;51672;51.230;-2.322;2022-09-09T03:34:16;14.50;99.90
65078;DHT22;51672;51.230;-2.322;2022-09-09T03:37:58;14.60;99.90
65078;DHT22;51672;51.230;-2.322;2022-09-09T03:41:42;14.60;99.90
65078;DHT22;51672;51.230;-2.322;2022-09-09T03:45:27;14.70;99.90
65078;DHT22;51672;51.230;-2.322;2022-09-09T03:49:10;14.70;99.90
65078;DHT22;51672;51.230;-2.322;2022-09-09T03:52:52;14.70;99.90
65078;DHT22;51672;51.230;-2.322;2022-09-09T03:56:35;14.80;99.90
65078;DHT22;51672;51.230;-2.322;2022-09-09T04:00:17;14.80;99.90
65078;DHT22;51672;51.230;-2.322;2022-09-09T04:03:59;14.80;99.90
65078;DHT22;51672;51.230;-2.322;2022-09-09T04:07:41;14.80;99.90
65078;DHT22;51672;51.230;-2.322;2022-09-09T04:11:23;14.80;99.90
65078;DHT22;51672;51.230;-2.322;2022-09-09T04:15:06;14.90;99.90
65078;DHT22;51672;51.230;-2.322;2022-09-09T04:18:48;14.90;99.90
65078;DHT22;51672;51.230;-2.322;2022-09-09T04:22:30;14.90;99.90
65078;DHT22;51672;51.230;-2.322;2022-09-09T04:26:13;14.90;99.90
65078;DHT22;51672;51.230;-2.322;2022-09-09T04:29:55;14.90;99.90
65078;DHT22;51672;51.230;-2.322;2022-09-09T04:33:38;14.90;99.90
65078;DHT22;51672;51.230;-2.322;2022-09-09T04:37:21;14.80;99.90
65078;DHT22;51672;51.230;-2.322;2022-09-09T04:41:03;14.80;99.90
65078;DHT22;51672;51.230;-2.322;2022-09-09T04:44:45;14.80;99.90
65078;DHT22;51672;51.230;-2.322;2022-09-09T04:48:27;14.80;99.90
65078;DHT22;51672;51.230;-2.322;2022-09-09T04:52:09;14.70;99.90
65078;DHT22;51672;51.230;-2.322;2022-09-09T04:56:05;14.70;99.90
65078;DHT22;51672;51.230;-2.322;2022-09-09T04:59:48;14.70;99.90
65078;DHT22;51672;51.230;-2.322;2022-09-09T05:03:30;14.60;99.90
65078;DHT22;51672;51.230;-2.322;2022-09-09T05:07:12;14.60;99.90
65078;DHT22;51672;51.230;-2.322;2022-09-09T05:10:56;14.60;99.90
65078;DHT22;51672;51.230;-2.322;2022-09-09T05:14:38;14.50;99.90
65078;DHT22;51672;51.230;-2.322;2022-09-09T05:18:20;14.50;99.90
65078;DHT22;51672;51.230;-2.322;2022-09-09T05:22:04;14.50;99.90
65078;DHT22;51672;51.230;-2.322;2022-09-09T05:25:57;14.50;99.90
65078;DHT22;51672;51.230;-2.322;2022-09-09T05:29:39;14.60;99.90
65078;DHT22;51672;51.230;-2.322;2022-09-09T05:33:23;14.70;99.90
65078;DHT22;51672;51.230;-2.322;2022-09-09T05:37:05;14.70;99.90
65078;DHT22;51672;51.230;-2.322;2022-09-09T05:40:49;14.70;99.90
65078;DHT22;51672;51.230;-2.322;2022-09-09T05:44:31;14.80;99.90
65078;DHT22;51672;51.230;-2.322;2022-09-09T05:48:14;14.80;99.90
65078;DHT22;51672;51.230;-2.322;2022-09-09T05:51:57;14.80;99.90
65078;DHT22;51672;51.230;-2.322;2022-09-09T05:55:39;14.80;99.90
65078;DHT22;51672;51.230;-2.322;2022-09-09T05:59:21;14.80;99.90
65078;DHT22;51672;51.230;-2.322;2022-09-09T06:03:04;14.70;99.90
65078;DHT22;51672;51.230;-2.322;2022-09-09T06:06:47;14.70;99.90
65078;DHT22;51672;51.230;-2.322;2022-09-09T06:10:31;14.60;99.90
65078;DHT22;51672;51.230;-2.322;2022-09-09T06:14:12;14.50;99.90
65078;DHT22;51672;51.230;-2.322;2022-09-09T06:17:55;14.50;99.90
65078;DHT22;51672;51.230;-2.322;2022-09-09T06:21:37;14.40;99.90
65078;DHT22;51672;51.230;-2.322;2022-09-09T06:25:19;14.50;99.90
65078;DHT22;51672;51.230;-2.322;2022-09-09T06:29:03;14.40;99.90
65078;DHT22;51672;51.230;-2.322;2022-09-09T06:32:46;14.50;99.90
65078;DHT22;51672;51.230;-2.322;2022-09-09T06:36:33;14.60;99.90
65078;DHT22;51672;51.230;-2.322;2022-09-09T06:40:15;14.80;99.90
65078;DHT22;51672;51.230;-2.322;2022-09-09T06:43:58;15.20;99.90
65078;DHT22;51672;51.230;-2.322;2022-09-09T06:47:40;15.40;99.90
65078;DHT22;51672;51.230;-2.322;2022-09-09T06:51:23;15.70;99.90
65078;DHT22;51672;51.230;-2.322;2022-09-09T06:55:05;16.10;99.90
65078;DHT22;51672;51.230;-2.322;2022-09-09T06:58:48;16.40;99.90
65078;DHT22;51672;51.230;-2.322;2022-09-09T07:02:30;16.50;99.90
65078;DHT22;51672;51.230;-2.322;2022-09-09T07:06:20;16.90;99.90
65078;DHT22;51672;51.230;-2.322;2022-09-09T07:10:02;17.40;99.90
65078;DHT22;51672;51.230;-2.322;2022-09-09T07:13:46;17.80;99.90
65078;DHT22;51672;51.230;-2.322;2022-09-09T07:17:28;18.00;99.90
65078;DHT22;51672;51.230;-2.322;2022-09-09T07:21:12;18.30;99.90
65078;DHT22;51672;51.230;-2.322;2022-09-09T07:24:55;18.50;99.90
65078;DHT22;51672;51.230;-2.322;2022-09-09T07:28:37;18.60;99.90
65078;DHT22;51672;51.230;-2.322;2022-09-09T07:32:20;18.80;99.90
65078;DHT22;51672;51.230;-2.322;2022-09-09T07:36:08;19.30;99.90
65078;DHT22;51672;51.230;-2.322;2022-09-09T07:39:50;19.60;99.90
65078;DHT22;51672;51.230;-2.322;2022-09-09T07:43:33;20.20;99.90
65078;DHT22;51672;51.230;-2.322;2022-09-09T07:47:15;21.20;99.90
65078;DHT22;51672;51.230;-2.322;2022-09-09T07:51:15;22.10;98.10
65078;DHT22;51672;51.230;-2.322;2022-09-09T07:55:02;23.00;98.20
65078;DHT22;51672;51.230;-2.322;2022-09-09T07:58:47;24.10;92.90
65078;DHT22;51672;51.230;-2.322;2022-09-09T08:02:30;25.20;92.10
65078;DHT22;51672;51.230;-2.322;2022-09-09T08:06:13;26.00;89.50
65078;DHT22;51672;51.230;-2.322;2022-09-09T08:09:55;25.70;82.40
65078;DHT22;51672;51.230;-2.322;2022-09-09T08:13:38;24.90;88.20
65078;DHT22;51672;51.230;-2.322;2022-09-09T08:17:21;24.00;89.00
65078;DHT22;51672;51.230;-2.322;2022-09-09T08:21:14;23.30;89.30
65078;DHT22;51672;51.230;-2.322;2022-09-09T08:24:58;22.80;91.60
65078;DHT22;51672;51.230;-2.322;2022-09-09T08:28:41;22.20;91.70
65078;DHT22;51672;51.230;-2.322;2022-09-09T08:32:24;21.90;92.80
65078;DHT22;51672;51.230;-2.322;2022-09-09T08:36:06;22.10;93.70
65078;DHT22;51672;51.230;-2.322;2022-09-09T08:39:50;23.30;91.80
65078;DHT22;51672;51.230;-2.322;2022-09-09T08:43:35;23.70;90.30
65078;DHT22;51672;51.230;-2.322;2022-09-09T08:51:16;23.30;93.00
65078;DHT22;51672;51.230;-2.322;2022-09-09T09:11:53;21.70;94.30
65078;DHT22;51672;51.230;-2.322;2022-09-09T09:16:00;21.50;92.70
65078;DHT22;51672;51.230;-2.322;2022-09-09T09:19:44;21.40;94.00
65078;DHT22;51672;51.230;-2.322;2022-09-09T09:23:59;21.20;92.70
65078;DHT22;51672;51.230;-2.322;2022-09-09T09:32:04;21.00;94.60
65078;DHT22;51672;51.230;-2.322;2022-09-09T09:52:36;20.50;96.00
65078;DHT22;51672;51.230;-2.322;2022-09-09T09:56:38;20.50;95.80
65078;DHT22;51672;51.230;-2.322;2022-09-09T10:00:25;20.50;97.00
65078;DHT22;51672;51.230;-2.322;2022-09-09T10:08:20;20.60;98.70
65078;DHT22;51672;51.230;-2.322;2022-09-09T10:12:30;20.70;97.00
65078;DHT22;51672;51.230;-2.322;2022-09-09T11:09:05;22.80;93.90
65078;DHT22;51672;51.230;-2.322;2022-09-09T11:13:18;23.20;92.20
65078;DHT22;51672;51.230;-2.322;2022-09-09T11:17:06;23.60;92.00
65078;DHT22;51672;51.230;-2.322;2022-09-09T11:21:21;23.80;90.70
65078;DHT22;51672;51.230;-2.322;2022-09-09T11:53:02;22.90;92.40
65078;DHT22;51672;51.230;-2.322;2022-09-09T12:15:26;22.90;92.30
65078;DHT22;51672;51.230;-2.322;2022-09-09T12:59:05;23.30;90.20
65078;DHT22;51672;51.230;-2.322;2022-09-09T13:12:36;21.30;98.70
65078;DHT22;51672;51.230;-2.322;2022-09-09T13:39:37;20.00;99.90
65078;DHT22;51672;51.230;-2.322;2022-09-09T14:44:58;21.80;99.20
